Time;durP1;ratioP1;P1;durP2;ratioP2;P2;SDS_P1;SDS_P2;PMS_P1;PMS_P2;Temp;Humidity;BMP_temperature;BMP_pressure;BME280_temperature;BME280_humidity;BME280_pressure;Samples;Min_cycle;Max_cycle;Signal;HPM_P1;HPM_P2
2022/12/15 00:38:44;;;;;;;5.75;5.03;;;9.20;99.90;;;;;;5033906;28;20059;-88
2022/12/15 00:41:15;;;;;;;6.18;5.15;;;9.20;99.90;;;;;;5034196;28;20053;-88
2022/12/15 00:43:41;;;;;;;5.28;4.78;;;9.10;99.90;;;;;;5015650;28;20022;-88
2022/12/15 00:48:51;;;;;;;5.50;5.00;;;9.10;99.90;;;;;;5014664;28;20099;-89
2022/12/15 00:51:18;;;;;;;6.15;4.72;;;9.40;99.90;;;;;;5030977;28;20033;-89
2022/12/15 01:21:09;;;;;;;5.93;5.03;;;9.30;99.90;;;;;;5033704;28;20028;-88
2022/12/15 01:23:36;;;;;;;5.75;5.15;;;9.30;99.90;;;;;;5015971;28;20026;-88
2022/12/15 01:26:03;;;;;;;6.22;4.72;;;9.40;99.90;;;;;;5033487;28;20100;-88
2022/12/15 01:28:28;;;;;;;5.07;4.55;;;9.20;99.90;;;;;;5015453;28;20026;-88
2022/12/15 01:30:55;;;;;;;5.80;5.20;;;9.20;99.90;;;;;;5033174;28;20498;-88
2022/12/15 01:33:21;;;;;;;5.80;4.57;;;9.30;99.90;;;;;;5032617;28;20103;-88
2022/12/15 01:35:56;;;;;;;6.13;4.50;;;9.20;99.90;;;;;;5033028;28;20033;-88
2022/12/15 01:38:21;;;;;;;5.25;4.30;;;9.30;99.90;;;;;;5032501;28;20037;-88
2022/12/15 01:41:08;;;;;;;5.07;4.57;;;9.10;99.90;;;;;;5015057;28;20394;-89
2022/12/15 01:43:36;;;;;;;5.03;4.40;;;9.20;99.90;;;;;;5032480;28;20029;-88
2022/12/15 01:46:06;;;;;;;4.63;4.13;;;9.20;99.90;;;;;;5032645;28;20032;-88
2022/12/15 01:48:43;;;;;;;6.43;4.95;;;9.30;99.90;;;;;;5027127;28;20032;-88
2022/12/15 01:51:17;;;;;;;5.22;4.72;;;9.20;99.90;;;;;;5013258;28;20491;-88
2022/12/15 01:53:49;;;;;;;7.68;5.18;;;9.40;99.90;;;;;;5028133;28;20051;-88
2022/12/15 01:56:16;;;;;;;4.55;4.10;;;9.30;99.90;;;;;;5032774;28;20032;-88
2022/12/15 01:58:47;;;;;;;5.53;4.68;;;9.20;99.90;;;;;;5032982;28;20029;-88
2022/12/15 02:01:13;;;;;;;5.32;4.70;;;9.30;99.90;;;;;;5014548;28;20107;-88
2022/12/15 02:03:42;;;;;;;4.63;4.22;;;9.20;99.90;;;;;;5015232;28;20513;-89
2022/12/15 02:06:09;;;;;;;5.88;4.35;;;9.30;99.90;;;;;;5014988;28;20025;-88
2022/12/15 02:08:36;;;;;;;5.53;4.97;;;9.20;99.90;;;;;;5032735;28;20064;-88
2022/12/15 02:11:10;;;;;;;5.28;4.38;;;9.20;99.90;;;;;;5032118;28;20033;-88
2022/12/15 02:14:02;;;;;;;5.13;4.63;;;9.10;99.90;;;;;;5032865;28;20036;-88
2022/12/15 02:16:37;;;;;;;5.18;4.55;;;9.20;99.90;;;;;;5031221;28;20084;-88
2022/12/15 02:19:33;;;;;;;5.43;4.55;;;9.10;99.90;;;;;;5031898;28;20494;-88
2022/12/15 02:22:21;;;;;;;5.55;4.75;;;9.20;99.90;;;;;;5032502;28;20429;-88
2022/12/15 02:25:20;;;;;;;5.93;4.40;;;9.30;99.90;;;;;;5032080;28;20413;-88
2022/12/15 02:28:12;;;;;;;6.63;5.13;;;9.20;99.90;;;;;;5032203;28;20477;-89
2022/12/15 02:33:53;;;;;;;6.63;4.72;;;9.10;99.90;;;;;;5032082;28;20094;-88
2022/12/15 02:36:41;;;;;;;4.75;4.20;;;9.40;99.90;;;;;;5031713;28;20066;-89
2022/12/15 02:39:10;;;;;;;5.00;4.50;;;9.30;99.90;;;;;;5031651;28;20112;-88
2022/12/15 02:41:41;;;;;;;5.72;4.88;;;9.20;99.90;;;;;;5032074;28;20700;-88
2022/12/15 02:44:19;;;;;;;6.32;4.93;;;9.30;99.90;;;;;;5031764;28;20049;-88
2022/12/15 02:47:00;;;;;;;5.45;4.85;;;9.30;99.90;;;;;;5016224;28;20025;-88
2022/12/15 02:49:44;;;;;;;6.63;4.93;;;9.40;99.90;;;;;;5017492;28;20025;-88
2022/12/15 02:52:36;;;;;;;5.93;4.88;;;9.30;99.90;;;;;;5032048;28;20041;-88
2022/12/15 02:55:29;;;;;;;7.65;4.80;;;9.20;99.90;;;;;;5031843;28;20030;-88
2022/12/15 02:58:13;;;;;;;5.45;4.95;;;9.20;99.90;;;;;;5013996;28;20033;-88
2022/12/15 03:00:47;;;;;;;5.70;5.10;;;9.20;99.90;;;;;;5031356;28;20030;-88
2022/12/15 03:03:18;;;;;;;5.85;4.95;;;9.40;99.90;;;;;;5031501;28;20033;-88
2022/12/15 03:05:56;;;;;;;5.55;5.05;;;9.20;99.90;;;;;;5031759;28;20033;-88
2022/12/15 03:08:22;;;;;;;5.78;4.80;;;9.30;99.90;;;;;;5031390;28;20558;-88
2022/12/15 03:10:53;;;;;;;5.85;4.97;;;9.40;99.90;;;;;;5033727;28;20041;-88
2022/12/15 03:13:19;;;;;;;5.60;5.00;;;9.30;99.90;;;;;;5035716;28;20492;-87
2022/12/15 03:15:45;;;;;;;6.10;4.40;;;9.30;99.90;;;;;;5014585;28;20045;-88
2022/12/15 03:18:10;;;;;;;5.40;4.85;;;9.30;99.90;;;;;;5016443;28;20109;-88
2022/12/15 03:20:36;;;;;;;5.75;4.60;;;9.20;99.90;;;;;;5015924;28;20030;-88
2022/12/15 03:23:02;;;;;;;5.20;4.70;;;9.30;99.90;;;;;;5015636;28;20034;-89
2022/12/15 03:25:28;;;;;;;6.95;4.75;;;9.20;99.90;;;;;;5016423;28;20459;-89
2022/12/15 03:27:54;;;;;;;4.68;4.15;;;9.20;99.90;;;;;;5015955;28;20529;-88
2022/12/15 03:30:19;;;;;;;5.47;4.25;;;9.40;99.90;;;;;;5015265;28;20034;-88
2022/12/15 03:32:45;;;;;;;4.88;4.30;;;9.20;99.90;;;;;;5015584;28;20044;-88
2022/12/15 03:35:11;;;;;;;6.03;3.90;;;9.00;99.90;;;;;;5015965;28;20026;-89
2022/12/15 03:37:38;;;;;;;4.55;4.07;;;9.00;99.90;;;;;;5014160;28;20029;-89
2022/12/15 03:40:05;;;;;;;4.47;4.00;;;9.30;99.90;;;;;;5015472;28;20034;-88
2022/12/15 03:42:49;;;;;;;4.07;3.60;;;8.90;99.90;;;;;;5015573;28;20026;-88
2022/12/15 03:45:26;;;;;;;5.28;4.25;;;9.10;99.90;;;;;;5015054;28;20108;-88
2022/12/15 03:47:53;;;;;;;4.80;4.20;;;9.20;99.90;;;;;;5015713;28;20095;-88
2022/12/15 03:50:25;;;;;;;6.13;4.43;;;9.60;99.90;;;;;;5015385;28;20030;-88
2022/12/15 03:52:56;;;;;;;4.85;3.97;;;9.40;99.90;;;;;;5013603;28;20041;-88
2022/12/15 03:55:22;;;;;;;5.00;3.75;;;9.40;99.90;;;;;;5015359;28;20043;-88
2022/12/15 03:57:48;;;;;;;4.55;3.83;;;9.30;99.90;;;;;;5015239;28;20037;-88
2022/12/15 04:00:15;;;;;;;4.10;3.70;;;9.50;99.90;;;;;;5013989;28;20387;-89
2022/12/15 04:02:41;;;;;;;5.55;3.65;;;9.20;99.90;;;;;;5015253;28;20560;-88
2022/12/15 04:05:12;;;;;;;4.78;3.60;;;9.30;99.90;;;;;;5015391;28;20026;-88
2022/12/15 04:07:38;;;;;;;4.70;4.20;;;9.40;99.90;;;;;;5014061;28;20437;-88
2022/12/15 04:10:04;;;;;;;5.78;3.90;;;9.30;99.90;;;;;;5015080;28;20112;-88
2022/12/15 04:12:29;;;;;;;4.70;4.20;;;9.40;99.90;;;;;;5015367;28;20037;-88
2022/12/15 04:14:55;;;;;;;4.55;3.58;;;9.40;99.90;;;;;;5013938;28;20033;-88
2022/12/15 04:17:21;;;;;;;4.75;4.25;;;9.40;99.90;;;;;;5032548;28;20053;-88
2022/12/15 04:22:30;;;;;;;4.80;3.95;;;9.30;99.90;;;;;;5034319;28;20563;-88
2022/12/15 05:33:26;;;;;;;3.13;2.53;;;9.20;99.90;;;;;;5027628;28;20024;-88
2022/12/15 05:35:56;;;;;;;3.20;2.90;;;9.40;99.90;;;;;;5032966;28;20509;-89
2022/12/15 05:38:21;;;;;;;3.35;2.40;;;9.30;99.90;;;;;;5021714;28;20100;-88
2022/12/15 05:40:47;;;;;;;4.07;2.60;;;9.30;99.90;;;;;;5013603;28;20550;-88
2022/12/15 05:43:12;;;;;;;3.10;2.78;;;9.30;99.90;;;;;;5010856;28;20116;-88
2022/12/15 05:45:38;;;;;;;3.00;2.55;;;9.30;99.90;;;;;;5032654;28;20034;-87
2022/12/15 05:48:04;;;;;;;3.28;2.50;;;9.30;99.90;;;;;;5032437;28;20453;-88
2022/12/15 05:50:30;;;;;;;4.00;2.80;;;9.20;99.90;;;;;;5033013;28;20029;-88
2022/12/15 05:52:57;;;;;;;4.53;3.00;;;9.30;99.90;;;;;;5033600;28;20033;-88
2022/12/15 05:55:23;;;;;;;3.70;2.85;;;9.20;99.90;;;;;;5032908;28;20108;-89
2022/12/15 05:57:52;;;;;;;6.97;4.63;;;9.20;99.90;;;;;;5022268;28;20105;-88
2022/12/15 06:00:19;;;;;;;8.32;6.18;;;9.60;99.90;;;;;;5028847;28;20053;-88
2022/12/15 06:02:44;;;;;;;4.35;3.40;;;9.30;99.90;;;;;;5032195;28;20166;-88
2022/12/15 06:05:10;;;;;;;3.58;2.70;;;9.30;99.90;;;;;;5032848;28;20520;-88
2022/12/15 06:07:36;;;;;;;4.43;3.40;;;9.10;99.90;;;;;;5031993;28;20025;-88
2022/12/15 06:10:02;;;;;;;3.72;3.08;;;9.10;99.90;;;;;;5032659;28;20033;-88
2022/12/15 06:12:28;;;;;;;4.47;3.13;;;9.00;99.90;;;;;;5032485;28;20025;-87
2022/12/15 06:14:54;;;;;;;5.03;3.05;;;9.10;99.90;;;;;;5032733;28;20056;-88
2022/12/15 06:17:19;;;;;;;3.65;3.10;;;9.10;99.90;;;;;;5031536;28;20096;-88
2022/12/15 06:19:45;;;;;;;3.17;2.85;;;9.30;99.90;;;;;;5032587;28;20037;-88
2022/12/15 06:22:11;;;;;;;3.58;2.70;;;9.20;99.90;;;;;;5032148;28;20041;-88
2022/12/15 06:24:37;;;;;;;3.35;3.05;;;9.30;99.90;;;;;;5032526;28;20102;-88
2022/12/15 06:27:03;;;;;;;3.47;3.10;;;9.30;99.90;;;;;;5031435;28;20176;-88
2022/12/15 06:29:29;;;;;;;4.03;3.33;;;9.50;99.90;;;;;;5031806;28;20026;-88
2022/12/15 06:31:54;;;;;;;5.70;3.60;;;9.10;99.90;;;;;;5013911;28;20041;-88
2022/12/15 06:34:20;;;;;;;4.10;3.67;;;9.40;99.90;;;;;;5031804;28;20091;-88
2022/12/15 06:36:46;;;;;;;5.70;3.58;;;9.30;99.90;;;;;;5032125;28;20049;-88
2022/12/15 06:39:14;;;;;;;5.55;3.97;;;9.30;99.90;;;;;;5014619;28;20048;-88
2022/12/15 06:41:40;;;;;;;5.53;3.70;;;9.00;99.90;;;;;;5031272;28;20052;-88
2022/12/15 06:44:06;;;;;;;4.45;3.70;;;8.90;99.90;;;;;;5031351;28;20025;-88
2022/12/15 06:46:33;;;;;;;4.63;3.65;;;8.90;99.90;;;;;;5022150;28;20509;-88
2022/12/15 06:48:59;;;;;;;5.53;4.10;;;9.10;99.90;;;;;;5012352;28;20053;-89
2022/12/15 06:51:26;;;;;;;4.55;3.90;;;8.90;99.90;;;;;;5028436;28;20076;-88
2022/12/15 06:53:55;;;;;;;6.40;4.13;;;9.00;99.90;;;;;;5014375;28;20389;-88
2022/12/15 06:56:32;;;;;;;6.68;4.35;;;9.20;99.90;;;;;;5032082;28;20033;-88
2022/12/15 06:58:58;;;;;;;5.18;4.53;;;8.90;99.90;;;;;;5031865;28;20025;-88
2022/12/15 07:01:24;;;;;;;7.88;5.18;;;8.90;99.90;;;;;;5032369;28;20091;-88
2022/12/15 07:03:51;;;;;;;7.05;4.28;;;9.00;99.90;;;;;;5013625;28;20109;-88
2022/12/15 07:06:17;;;;;;;6.15;4.50;;;8.90;99.90;;;;;;5012227;28;20053;-89
2022/12/15 07:08:47;;;;;;;4.88;4.10;;;8.90;99.90;;;;;;5016915;28;20056;-83
2022/12/15 07:11:13;;;;;;;7.05;4.78;;;8.90;99.90;;;;;;5021560;28;20038;-83
2022/12/15 07:13:39;;;;;;;5.20;4.45;;;9.00;99.90;;;;;;5012116;28;20033;-83
2022/12/15 07:16:06;;;;;;;4.78;4.18;;;9.00;99.90;;;;;;5028578;28;20104;-83
2022/12/15 07:18:32;;;;;;;6.38;4.90;;;9.10;99.90;;;;;;5031774;28;20052;-83
2022/12/15 07:21:03;;;;;;;9.40;6.35;;;9.30;99.90;;;;;;5031863;28;20425;-83
2022/12/15 07:23:29;;;;;;;13.65;7.70;;;9.10;99.90;;;;;;5032258;28;20068;-83
2022/12/15 07:25:54;;;;;;;6.90;5.90;;;9.10;99.90;;;;;;5031812;28;20029;-83
2022/12/15 07:28:20;;;;;;;7.78;5.63;;;8.80;99.90;;;;;;5014376;28;20021;-83
2022/12/15 07:30:46;;;;;;;9.35;7.32;;;8.90;99.90;;;;;;5011599;28;20080;-83
2022/12/15 07:33:11;;;;;;;7.50;6.72;;;8.70;99.90;;;;;;5016155;28;20575;-83
2022/12/15 07:35:37;;;;;;;9.85;8.55;;;9.00;99.90;;;;;;5032091;28;20063;-83
2022/12/15 07:38:06;;;;;;;10.95;8.82;;;8.80;99.90;;;;;;5031554;28;20370;-82
2022/12/15 07:40:32;;;;;;;10.35;8.75;;;8.80;99.90;;;;;;5030303;28;20021;-83
2022/12/15 07:42:57;;;;;;;10.25;7.90;;;9.00;99.90;;;;;;5011873;28;20033;-83
2022/12/15 07:45:23;;;;;;;9.48;7.80;;;8.90;99.90;;;;;;5028277;28;20026;-81
2022/12/15 07:47:50;;;;;;;9.35;7.45;;;8.90;99.90;;;;;;5031999;28;20029;-82
2022/12/15 07:50:16;;;;;;;11.43;8.88;;;9.20;99.90;;;;;;5030960;28;20108;-81
2022/12/15 07:52:42;;;;;;;10.30;7.93;;;8.70;99.90;;;;;;5031498;28;20367;-82
2022/12/15 07:55:08;;;;;;;9.27;7.95;;;8.80;99.90;;;;;;5031316;28;20106;-86
2022/12/15 07:57:33;;;;;;;10.07;7.70;;;8.70;99.90;;;;;;5027485;28;20018;-87
2022/12/15 07:59:59;;;;;;;9.23;7.75;;;8.70;99.90;;;;;;5030470;28;20022;-89
2022/12/15 08:02:25;;;;;;;12.80;8.95;;;8.50;99.90;;;;;;5034877;28;20036;-89
2022/12/15 08:04:50;;;;;;;11.98;8.65;;;8.70;99.90;;;;;;5035761;28;20034;-88
2022/12/15 08:07:16;;;;;;;9.73;8.45;;;8.50;99.90;;;;;;5039859;28;20037;-89
2022/12/15 08:09:41;;;;;;;12.35;9.13;;;8.60;99.90;;;;;;5037400;28;20067;-88
2022/12/15 08:12:07;;;;;;;11.00;8.98;;;8.60;99.90;;;;;;5017301;28;20061;-89
2022/12/15 08:14:33;;;;;;;10.90;9.27;;;8.90;99.90;;;;;;5017006;28;20498;-89
2022/12/15 08:16:59;;;;;;;12.80;9.82;;;8.50;99.90;;;;;;5034864;28;20041;-89
2022/12/15 08:19:25;;;;;;;12.80;10.23;;;8.50;99.90;;;;;;5017487;28;20052;-89
2022/12/15 08:21:50;;;;;;;14.63;10.80;;;8.60;99.90;;;;;;5034906;28;20082;-88
2022/12/15 08:24:18;;;;;;;16.50;12.02;;;8.60;99.90;;;;;;5035150;28;20029;-89
2022/12/15 08:26:44;;;;;;;16.77;11.73;;;8.60;99.90;;;;;;5034924;28;20029;-89
2022/12/15 08:29:11;;;;;;;16.42;12.10;;;8.70;99.90;;;;;;5034345;28;20040;-89
2022/12/15 08:31:37;;;;;;;14.30;10.82;;;8.70;99.90;;;;;;5034743;28;20044;-89
2022/12/15 08:34:04;;;;;;;15.15;12.00;;;8.70;99.90;;;;;;5034890;28;20394;-89
2022/12/15 08:36:31;;;;;;;15.30;12.00;;;8.90;99.90;;;;;;5034606;28;20021;-89
2022/12/15 08:38:58;;;;;;;16.08;11.85;;;8.60;99.90;;;;;;5034561;28;20033;-89
2022/12/15 08:41:27;;;;;;;14.00;11.82;;;8.60;99.90;;;;;;5034608;28;20018;-89
2022/12/15 08:43:54;;;;;;;15.80;12.52;;;8.70;99.90;;;;;;5034491;28;20490;-89
2022/12/15 08:46:25;;;;;;;16.25;12.15;;;8.70;99.90;;;;;;5016672;28;20029;-89
2022/12/15 08:48:54;;;;;;;14.95;11.35;;;8.60;99.90;;;;;;5034413;28;20029;-89
2022/12/15 08:51:21;;;;;;;14.23;11.82;;;9.10;99.90;;;;;;5034618;28;20563;-88
2022/12/15 08:53:47;;;;;;;15.23;11.93;;;9.00;99.90;;;;;;5016850;28;20026;-89
2022/12/15 08:56:16;;;;;;;14.10;11.70;;;8.70;99.90;;;;;;5016273;28;20486;-89
2022/12/15 08:58:42;;;;;;;15.77;11.60;;;8.80;99.90;;;;;;5033910;28;20470;-89
2022/12/15 09:01:11;;;;;;;13.57;11.15;;;8.90;99.90;;;;;;5034141;28;20025;-89
2022/12/15 09:03:37;;;;;;;14.20;10.75;;;9.00;99.90;;;;;;5034569;28;20548;-89
2022/12/15 09:06:10;;;;;;;13.75;10.80;;;9.00;99.90;;;;;;5034102;28;20064;-89
2022/12/15 09:08:36;;;;;;;14.50;10.48;;;8.90;99.90;;;;;;5033220;28;20204;-88
2022/12/15 09:11:04;;;;;;;12.88;10.35;;;8.90;99.90;;;;;;5033607;28;20025;-88
2022/12/15 09:13:30;;;;;;;14.50;10.43;;;9.00;99.90;;;;;;5034343;28;20030;-89
2022/12/15 09:16:07;;;;;;;14.10;10.35;;;9.00;99.90;;;;;;5033975;28;20172;-89
2022/12/15 09:18:33;;;;;;;13.27;10.60;;;8.80;99.90;;;;;;5033915;28;20108;-89
2022/12/15 09:21:04;;;;;;;14.13;10.82;;;8.60;99.90;;;;;;5033901;28;20034;-89
2022/12/15 09:23:30;;;;;;;13.27;10.25;;;8.60;99.90;;;;;;5033841;28;20033;-89
2022/12/15 09:26:03;;;;;;;13.57;10.80;;;8.60;99.90;;;;;;5033454;28;20501;-89
2022/12/15 09:28:30;;;;;;;12.00;10.18;;;8.50;99.90;;;;;;5033557;28;20105;-89
2022/12/15 09:31:29;;;;;;;14.20;11.25;;;8.60;99.90;;;;;;5033762;28;20239;-89
2022/12/15 09:33:57;;;;;;;13.60;11.38;;;8.40;99.90;;;;;;5001454;28;20045;-89
2022/12/15 09:36:24;;;;;;;13.32;10.68;;;8.50;99.90;;;;;;5033393;28;20029;-89
2022/12/15 09:38:49;;;;;;;12.10;10.10;;;8.50;99.90;;;;;;5033444;28;20037;-89
2022/12/15 09:41:28;;;;;;;12.18;9.02;;;8.40;99.90;;;;;;5015419;28;20040;-89
2022/12/15 09:44:19;;;;;;;12.50;10.05;;;8.40;99.90;;;;;;5033257;28;20028;-89
2022/12/15 09:47:04;;;;;;;12.75;10.35;;;8.30;99.90;;;;;;5033730;28;20021;-88
2022/12/15 09:49:56;;;;;;;14.00;10.48;;;8.30;99.90;;;;;;5033353;28;20032;-89
2022/12/15 09:52:48;;;;;;;13.30;10.57;;;8.40;99.90;;;;;;5015348;28;20049;-89
2022/12/15 09:55:22;;;;;;;14.93;11.48;;;8.40;99.90;;;;;;5033342;28;20025;-89
2022/12/15 09:58:02;;;;;;;13.52;11.05;;;8.80;99.90;;;;;;5032877;28;20117;-88
2022/12/15 10:00:41;;;;;;;14.07;10.75;;;8.60;99.90;;;;;;5033099;28;20401;-89
2022/12/15 10:03:29;;;;;;;13.85;11.27;;;8.70;99.90;;;;;;5033062;28;20036;-89
2022/12/15 10:06:17;;;;;;;13.18;11.23;;;8.80;99.90;;;;;;5033377;28;20029;-89
2022/12/15 10:09:02;;;;;;;13.52;10.80;;;8.90;99.90;;;;;;5032549;28;20060;-89
2022/12/15 10:11:43;;;;;;;14.77;11.05;;;9.00;99.90;;;;;;5032750;28;20057;-88
2022/12/15 10:14:31;;;;;;;16.50;11.40;;;9.10;99.90;;;;;;5032916;28;20028;-88
2022/12/15 10:17:20;;;;;;;14.90;11.07;;;8.90;99.90;;;;;;5032594;28;20453;-89
2022/12/15 10:20:14;;;;;;;17.00;11.15;;;9.00;99.90;;;;;;5032900;28;20047;-88
2022/12/15 10:22:40;;;;;;;12.85;10.00;;;9.30;99.90;;;;;;5015493;28;20509;-88
2022/12/15 10:25:23;;;;;;;14.85;11.43;;;9.10;99.90;;;;;;5032294;28;20013;-88
2022/12/15 10:27:54;;;;;;;14.57;11.85;;;8.90;99.90;;;;;;5032408;28;20072;-88
2022/12/15 10:30:20;;;;;;;19.42;15.73;;;9.00;99.90;;;;;;5032744;28;20033;-88
2022/12/15 10:33:19;;;;;;;15.20;11.73;;;9.00;99.90;;;;;;5014269;28;20034;-88
2022/12/15 10:35:46;;;;;;;12.93;10.30;;;9.10;99.90;;;;;;5032953;28;20104;-88
2022/12/15 10:38:30;;;;;;;15.05;12.10;;;8.90;99.90;;;;;;5032129;28;20033;-88
2022/12/15 10:41:00;;;;;;;13.38;10.93;;;9.10;99.90;;;;;;5032385;28;20030;-88
2022/12/15 10:43:26;;;;;;;14.40;11.40;;;9.30;99.90;;;;;;5014586;28;20025;-88
2022/12/15 10:46:04;;;;;;;16.58;11.77;;;9.10;99.90;;;;;;5032227;28;20030;-88
2022/12/15 10:48:30;;;;;;;18.02;11.73;;;9.00;99.90;;;;;;5032259;28;20030;-88
2022/12/15 10:51:31;;;;;;;16.48;12.40;;;9.00;99.90;;;;;;5032235;28;20029;-89
2022/12/15 10:54:08;;;;;;;16.20;11.98;;;9.20;99.90;;;;;;5031803;28;20041;-88
2022/12/15 10:56:54;;;;;;;13.52;11.30;;;9.20;99.90;;;;;;5031786;28;20026;-88
2022/12/15 10:59:32;;;;;;;15.82;12.73;;;9.20;99.90;;;;;;5032251;28;20445;-88
2022/12/15 11:02:19;;;;;;;16.65;10.85;;;9.20;99.90;;;;;;5032220;28;20025;-88
2022/12/15 11:04:55;;;;;;;15.98;11.88;;;9.00;99.90;;;;;;5032207;28;20446;-88
2022/12/15 11:07:21;;;;;;;15.48;12.32;;;9.10;99.90;;;;;;5031961;28;20032;-89
2022/12/15 11:09:48;;;;;;;14.07;11.63;;;9.40;99.90;;;;;;5032126;28;20096;-88
2022/12/15 11:15:30;;;;;;;12.95;11.18;;;8.90;99.90;;;;;;5032407;28;20378;-88
2022/12/15 11:18:16;;;;;;;15.52;12.63;;;8.90;99.90;;;;;;4992440;28;20042;-89
2022/12/15 11:20:56;;;;;;;13.63;11.10;;;9.10;99.90;;;;;;4993041;28;20041;-88
2022/12/15 11:23:27;;;;;;;21.20;14.65;;;9.10;99.90;;;;;;4992279;28;20161;-88
2022/12/15 11:26:04;;;;;;;18.65;14.00;;;9.00;99.90;;;;;;4992462;28;20622;-88
2022/12/15 11:28:42;;;;;;;16.40;13.27;;;9.10;99.90;;;;;;4992546;28;20049;-88
2022/12/15 11:31:39;;;;;;;13.13;11.73;;;9.00;99.90;;;;;;4993482;28;20041;-88
2022/12/15 11:34:22;;;;;;;15.57;11.77;;;8.90;99.90;;;;;;4991744;28;20518;-88
2022/12/15 11:37:06;;;;;;;17.83;14.20;;;9.20;99.90;;;;;;4976822;28;20030;-88
2022/12/15 11:39:46;;;;;;;23.30;16.10;;;9.00;99.90;;;;;;4976943;28;20081;-88
2022/12/15 11:42:23;;;;;;;16.88;13.85;;;9.00;99.90;;;;;;4976942;28;20027;-88
2022/12/15 11:45:18;;;;;;;18.42;13.23;;;8.90;99.90;;;;;;4977248;28;20077;-88
2022/12/15 11:47:52;;;;;;;18.90;15.35;;;8.70;99.90;;;;;;4976714;28;20062;-88
2022/12/15 11:50:55;;;;;;;20.92;15.27;;;8.80;99.90;;;;;;4975061;28;20113;-88
2022/12/15 11:53:48;;;;;;;19.13;13.80;;;8.90;99.90;;;;;;4977006;28;20503;-88
2022/12/15 11:56:27;;;;;;;14.13;12.48;;;8.80;99.90;;;;;;4977266;28;20023;-88
2022/12/15 11:59:21;;;;;;;16.17;12.60;;;8.80;99.90;;;;;;4995374;28;20030;-88
2022/12/15 12:02:01;;;;;;;15.48;12.55;;;8.70;99.90;;;;;;4995941;28;20030;-88
2022/12/15 12:04:42;;;;;;;16.38;13.50;;;8.70;99.90;;;;;;4995743;28;20034;-88
2022/12/15 12:07:30;;;;;;;17.92;14.07;;;8.70;99.90;;;;;;4996248;28;20031;-88
2022/12/15 12:10:27;;;;;;;21.65;15.23;;;8.70;99.90;;;;;;4994746;28;20096;-88
2022/12/15 12:13:01;;;;;;;25.48;14.73;;;8.60;99.90;;;;;;4995677;28;20483;-88
2022/12/15 12:15:37;;;;;;;23.92;14.88;;;8.60;99.90;;;;;;4999912;28;20431;-88
2022/12/15 12:18:34;;;;;;;23.85;14.52;;;8.60;99.90;;;;;;5017285;28;20433;-88
2022/12/15 12:21:13;;;;;;;21.25;14.68;;;8.60;99.90;;;;;;4954527;28;20059;-88
2022/12/15 12:23:48;;;;;;;17.88;14.00;;;8.70;99.90;;;;;;4954691;28;20068;-88
2022/12/15 12:26:38;;;;;;;23.20;14.88;;;9.00;99.90;;;;;;4954569;28;20131;-88
2022/12/15 12:29:12;;;;;;;21.88;15.18;;;8.80;99.90;;;;;;4954522;28;20064;-87
2022/12/15 12:31:46;;;;;;;23.65;14.68;;;8.70;99.90;;;;;;4954309;28;20477;-88
2022/12/15 12:34:39;;;;;;;27.77;15.35;;;8.40;99.90;;;;;;4954040;28;20051;-88
2022/12/15 12:37:31;;;;;;;25.60;15.05;;;8.40;99.90;;;;;;4954530;28;20114;-87
2022/12/15 12:40:04;;;;;;;32.60;16.65;;;8.40;99.90;;;;;;4954374;29;20058;-88
2022/12/15 12:42:40;;;;;;;32.83;17.13;;;8.30;99.90;;;;;;4953061;28;20036;-88
2022/12/15 12:45:10;;;;;;;29.10;16.58;;;8.10;99.90;;;;;;4938235;28;20042;-88
2022/12/15 12:47:43;;;;;;;32.15;17.42;;;8.10;99.90;;;;;;4954253;28;20066;-88
2022/12/15 12:50:19;;;;;;;25.63;15.75;;;8.10;99.90;;;;;;4953824;29;20034;-88
2022/12/15 12:52:53;;;;;;;30.83;16.80;;;8.70;99.90;;;;;;4954140;28;20043;-88
2022/12/15 12:55:34;;;;;;;30.00;17.55;;;8.70;99.90;;;;;;4954481;28;20027;-88
2022/12/15 12:58:00;;;;;;;21.02;14.88;;;8.70;99.90;;;;;;5004174;28;20038;-88
2022/12/15 13:00:28;;;;;;;23.98;15.60;;;8.70;99.90;;;;;;5016444;28;20041;-88
2022/12/15 13:03:12;;;;;;;21.50;16.00;;;8.70;99.90;;;;;;5033846;28;20025;-88
2022/12/15 13:05:39;;;;;;;19.67;15.30;;;8.70;99.90;;;;;;5034124;28;20036;-88
2022/12/15 13:08:05;;;;;;;20.05;14.70;;;8.70;99.90;;;;;;5034542;28;20506;-88
2022/12/15 13:11:20;;;;;;;19.63;14.75;;;8.80;99.90;;;;;;5033873;28;20029;-88
2022/12/15 13:13:46;;;;;;;19.83;14.93;;;8.70;99.90;;;;;;5027787;28;20041;-88
2022/12/15 13:16:24;;;;;;;19.98;14.93;;;8.70;99.90;;;;;;5033776;28;20041;-88
2022/12/15 13:19:36;;;;;;;20.15;15.60;;;8.70;99.90;;;;;;5033636;28;20034;-88
2022/12/15 13:22:01;;;;;;;23.13;15.10;;;8.90;99.90;;;;;;5033578;28;20026;-88
2022/12/15 13:24:47;;;;;;;20.63;14.82;;;8.80;99.90;;;;;;5015869;28;20082;-88
2022/12/15 13:27:14;;;;;;;19.92;14.60;;;8.80;99.90;;;;;;5015992;28;20041;-88
2022/12/15 13:29:55;;;;;;;20.17;14.65;;;9.10;99.90;;;;;;5033687;28;20033;-88
2022/12/15 13:32:42;;;;;;;21.25;14.70;;;8.70;99.90;;;;;;5033405;28;20040;-88
2022/12/15 13:35:16;;;;;;;19.13;14.23;;;8.60;99.90;;;;;;5014019;28;20030;-88
2022/12/15 13:37:50;;;;;;;16.25;12.95;;;8.70;99.90;;;;;;5013770;28;20022;-88
2022/12/15 13:40:33;;;;;;;17.75;13.50;;;8.70;99.90;;;;;;5013869;28;20465;-88
2022/12/15 13:43:05;;;;;;;28.52;21.30;;;8.70;99.90;;;;;;5013500;28;20490;-88
2022/12/15 13:45:50;;;;;;;33.53;23.23;;;9.10;99.90;;;;;;4996417;28;20026;-88
2022/12/15 13:48:33;;;;;;;46.00;40.25;;;8.70;99.90;;;;;;5013112;28;20124;-89
2022/12/15 13:51:13;;;;;;;38.00;30.20;;;8.80;99.90;;;;;;4995769;28;20030;-88
2022/12/15 13:53:43;;;;;;;32.67;24.95;;;8.60;99.90;;;;;;5012993;28;20081;-88
2022/12/15 13:56:26;;;;;;;24.70;16.77;;;8.60;99.90;;;;;;5013935;28;20106;-88
2022/12/15 13:58:59;;;;;;;22.08;16.45;;;8.60;99.90;;;;;;5032354;28;20032;-88
2022/12/15 14:01:29;;;;;;;22.42;15.23;;;8.60;99.90;;;;;;5032910;28;20049;-87
2022/12/15 14:04:14;;;;;;;23.83;15.15;;;8.90;99.90;;;;;;5033061;28;20029;-87
2022/12/15 14:06:46;;;;;;;15.95;12.40;;;9.10;99.90;;;;;;5033019;28;20061;-87
2022/12/15 14:09:19;;;;;;;14.95;11.77;;;8.60;99.90;;;;;;5032896;28;20021;-87
2022/12/15 14:11:47;;;;;;;21.35;12.57;;;8.60;99.90;;;;;;5032890;28;20107;-88
2022/12/15 14:14:23;;;;;;;19.23;12.27;;;8.80;99.90;;;;;;5032960;28;20509;-87
2022/12/15 14:16:56;;;;;;;16.83;10.75;;;8.50;99.90;;;;;;5032354;28;20445;-88
2022/12/15 14:19:22;;;;;;;16.42;11.38;;;9.00;99.90;;;;;;5033122;28;20569;-88
2022/12/15 14:21:52;;;;;;;25.00;14.88;;;8.90;99.90;;;;;;5032729;28;20025;-87
2022/12/15 14:24:26;;;;;;;21.33;13.85;;;8.50;99.90;;;;;;5032754;28;20033;-88
2022/12/15 14:26:52;;;;;;;33.05;24.05;;;8.60;99.90;;;;;;5015006;28;20453;-88
2022/12/15 14:29:19;;;;;;;24.63;17.30;;;8.90;99.90;;;;;;5015243;28;20091;-87
2022/12/15 14:31:54;;;;;;;31.10;16.27;;;8.70;99.90;;;;;;5031984;28;20083;-88
2022/12/15 14:34:29;;;;;;;30.35;18.63;;;8.50;99.90;;;;;;5032298;28;20050;-88
2022/12/15 14:36:58;;;;;;;31.40;18.48;;;8.30;99.90;;;;;;5032728;28;20057;-88
2022/12/15 14:39:38;;;;;;;24.55;17.45;;;8.40;99.90;;;;;;5032522;28;20120;-88
2022/12/15 14:42:06;;;;;;;30.30;18.88;;;8.80;99.90;;;;;;5032813;28;20345;-88
2022/12/15 14:44:34;;;;;;;27.42;18.98;;;8.40;99.90;;;;;;5031840;28;20099;-87
2022/12/15 14:47:04;;;;;;;28.80;18.83;;;8.60;99.90;;;;;;5033175;28;20397;-88
2022/12/15 14:49:39;;;;;;;27.48;19.02;;;8.60;99.90;;;;;;5032205;28;20117;-88
2022/12/15 14:52:11;;;;;;;26.23;19.65;;;8.50;99.90;;;;;;5032292;28;20033;-88
2022/12/15 14:54:48;;;;;;;20.35;16.58;;;8.50;99.90;;;;;;5032202;28;20076;-88
2022/12/15 14:57:20;;;;;;;21.00;17.27;;;8.50;99.90;;;;;;5032244;28;20037;-87
2022/12/15 14:59:47;;;;;;;21.52;15.95;;;8.70;99.90;;;;;;5032207;28;20481;-88
2022/12/15 15:02:27;;;;;;;19.33;15.05;;;8.50;99.90;;;;;;5014339;28;20086;-87
2022/12/15 15:05:06;;;;;;;23.17;15.20;;;8.50;99.90;;;;;;5032006;28;20473;-88
2022/12/15 15:07:33;;;;;;;21.58;15.88;;;8.50;99.90;;;;;;5031664;28;20022;-87
2022/12/15 15:10:02;;;;;;;26.60;19.40;;;8.90;99.90;;;;;;5032013;28;20040;-88
2022/12/15 15:12:48;;;;;;;22.65;16.42;;;8.50;99.90;;;;;;5032217;28;20030;-88
2022/12/15 15:15:19;;;;;;;24.35;15.77;;;8.50;99.90;;;;;;5031258;28;20112;-87
2022/12/15 15:17:48;;;;;;;25.20;16.35;;;8.40;99.90;;;;;;5032225;28;20041;-88
2022/12/15 15:20:21;;;;;;;27.23;15.90;;;8.40;99.90;;;;;;5031865;28;20034;-88
2022/12/15 15:23:14;;;;;;;25.45;17.85;;;8.40;99.90;;;;;;5014404;28;20496;-88
2022/12/15 15:25:49;;;;;;;29.17;19.00;;;8.50;99.90;;;;;;5031938;28;20030;-88
2022/12/15 15:28:17;;;;;;;26.55;17.50;;;8.50;99.90;;;;;;5031529;28;20033;-88
2022/12/15 15:30:48;;;;;;;19.90;14.25;;;8.60;99.90;;;;;;5031938;28;20034;-88
2022/12/15 15:33:14;;;;;;;26.38;17.88;;;8.40;99.90;;;;;;5031521;28;20021;-88
2022/12/15 15:35:42;;;;;;;25.35;19.40;;;8.40;99.90;;;;;;5031802;28;20025;-88
2022/12/15 15:38:23;;;;;;;36.50;21.75;;;8.40;99.90;;;;;;5032061;28;20053;-87
2022/12/15 15:40:57;;;;;;;33.13;19.88;;;8.50;99.90;;;;;;5031909;28;20040;-88